Chronik & Geschichte

Boeing Stearman am Flugplatz Konstanz

Mit seiner 107-jährigen Geschichte ist Konstanz der älteste Verkehrslandeplatz Deutschlands. Lesen Sie unsere Festschrift zum 100-jährigen Platzjubiläum oder entdecken Sie die ausführliche Flugplatzchronik auf der Website der Initiative PRO Flugplatz Konstanz.

Live am Platz

Die Bilder unserer Webcams werden alle 5 Minuten aktualisiert.

Sonnenaufgang:

05:21 UTC / 07:21 Lokal

Sonnenuntergang:

17:05 UTC / 19:05 Lokal

METAR (01.10.2022 17:50 UTC):

EDNY 011750Z 24014KT 9999 FEW013 BKN034 OVC046 12/11 Q1017
VFR

TAF (01.10.2022 17:00 UTC):

TAF EDNY 011700Z 0118/0218 24009KT 9999 SCT012 BKN030 TEMPO 0118/0123 BKN012 PROB40 TEMPO 0123/0210 RA BKN012 PROB30 TEMPO 0210/0216 25015G25KT SHRA BKN020CB

Alle Angaben unverbindlich und ohne Gewähr. Zeiten genähert.

Für den Verkehrslandeplatz Konstanz werden keine offiziellen Wetterinformationen ausgegeben. Daher werden zur Orientierung Daten des nahegelegenen Flughafens Friedrichshafen dargestellt.

Das Landeentgelt kann bei uns auch mit aerops bezahlt werden. Die App für's Handy ist kostenfrei erhältlich.